Time;durP1;ratioP1;P1;durP2;ratioP2;P2;SDS_P1;SDS_P2;PMS_P1;PMS_P2;Temp;Humidity;BMP_temperature;BMP_pressure;BME280_temperature;BME280_humidity;BME280_pressure;Samples;Min_cycle;Max_cycle;Signal;HPM_P1;HPM_P2
2023/01/07 00:01:06;;;;;;;6.10;2.53;;;;;;;-144.47;95.54;52953.41;5031135;28;20029;-69
2023/01/07 00:03:32;;;;;;;4.70;2.53;;;;;;;-144.47;96.26;52939.50;5019775;28;20029;-70
2023/01/07 00:06:03;;;;;;;5.38;2.63;;;;;;;-144.47;96.86;52947.47;5030552;28;20052;-69
2023/01/07 00:08:30;;;;;;;6.82;2.90;;;;;;;-144.47;96.93;52931.56;5029222;28;20534;-68
2023/01/07 00:10:59;;;;;;;5.18;2.60;;;;;;;-144.47;97.56;52963.34;5027994;28;20028;-70
2023/01/07 00:13:25;;;;;;;7.72;3.20;;;;;;;-144.47;97.68;52967.31;5029523;28;20033;-68
2023/01/07 00:15:51;;;;;;;4.90;2.65;;;;;;;-144.47;97.87;52973.28;5031374;28;20120;-70
2023/01/07 00:18:16;;;;;;;4.82;2.58;;;;;;;-144.47;98.11;52933.56;5028057;28;20059;-69
2023/01/07 00:20:41;;;;;;;4.68;2.60;;;;;;;-144.47;98.13;52931.56;5043392;28;20289;-69
2023/01/07 00:23:07;;;;;;;10.73;3.00;;;;;;;-144.47;98.86;52965.34;5046715;28;20025;-67
2023/01/07 00:25:32;;;;;;;5.97;2.85;;;;;;;-144.47;98.75;52921.63;5055225;28;20032;-69
2023/01/07 00:27:57;;;;;;;7.25;2.78;;;;;;;-144.47;98.61;52933.56;5032050;28;20021;-68
2023/01/07 00:30:23;;;;;;;4.65;2.40;;;;;;;-144.47;98.62;52923.63;5011999;28;20026;-69
2023/01/07 00:33:03;;;;;;;8.82;4.28;;;;;;;-144.47;98.47;52937.53;5035964;28;20061;-67
2023/01/07 00:35:35;;;;;;;6.50;3.35;;;;;;;-144.47;97.83;52939.50;5024339;28;20036;-66
2023/01/07 00:38:04;;;;;;;7.20;3.17;;;;;;;-144.47;97.58;52935.53;5028653;28;20028;-71
2023/01/07 00:40:33;;;;;;;10.32;4.00;;;;;;;-144.47;97.39;52933.56;5025739;28;20542;-66
2023/01/07 00:43:03;;;;;;;8.45;3.95;;;;;;;-144.47;97.41;52949.44;5021202;28;20040;-69
2023/01/07 00:45:31;;;;;;;9.82;4.13;;;;;;;-144.47;97.19;52915.69;5019453;28;20079;-67
2023/01/07 00:47:58;;;;;;;8.30;4.03;;;;;;;-144.47;97.51;52955.41;5031216;28;20044;-69
2023/01/07 00:50:29;;;;;;;11.15;4.07;;;;;;;-144.47;97.84;52909.72;5033949;28;20022;-65
2023/01/07 00:52:55;;;;;;;8.50;4.22;;;;;;;-144.47;98.12;52951.44;5029644;28;20033;-68
2023/01/07 00:55:21;;;;;;;7.88;3.47;;;;;;;-144.47;98.91;52953.41;5037005;28;20038;-70
2023/01/07 00:57:47;;;;;;;7.07;3.15;;;;;;;-144.47;99.23;52963.34;5023279;28;20438;-68
2023/01/07 01:00:15;;;;;;;5.43;3.13;;;;;;;-144.47;100.00;52947.47;5046295;22;20090;-67
2023/01/07 01:02:41;;;;;;;11.75;3.30;;;;;;;-144.47;100.00;52961.34;5046644;28;20077;-67
2023/01/07 01:05:08;;;;;;;7.70;3.25;;;;;;;-144.47;100.00;52963.34;5047065;28;20138;-67
2023/01/07 01:07:34;;;;;;;9.60;3.10;;;;;;;-144.47;100.00;52953.41;5041743;28;20029;-67
2023/01/07 01:10:00;;;;;;;5.82;2.97;;;;;;;-144.47;100.00;52927.59;5032658;28;20021;-68
2023/01/07 01:12:25;;;;;;;4.40;2.40;;;;;;;-144.47;100.00;52935.53;5025308;28;20428;-67
2023/01/07 01:14:50;;;;;;;4.97;2.35;;;;;;;-144.47;100.00;52945.47;5025792;28;20475;-67
2023/01/07 01:17:16;;;;;;;7.05;2.90;;;;;;;-144.47;100.00;52961.34;5022094;28;20033;-67
2023/01/07 01:19:41;;;;;;;6.47;3.35;;;;;;;-144.47;100.00;52955.41;5022886;28;20040;-67
2023/01/07 01:22:07;;;;;;;6.38;2.70;;;;;;;-144.47;100.00;52975.25;5026953;28;20466;-66
2023/01/07 01:24:32;;;;;;;3.92;2.20;;;;;;;-144.47;100.00;52971.28;5021710;28;20017;-68
2023/01/07 01:26:58;;;;;;;4.35;2.30;;;;;;;-144.47;100.00;52967.31;5016418;28;20437;-68
2023/01/07 01:29:23;;;;;;;6.03;2.70;;;;;;;-144.47;100.00;52937.53;5025167;28;20033;-66
2023/01/07 01:31:49;;;;;;;7.38;3.08;;;;;;;-144.47;100.00;52955.41;5026974;28;20550;-68
2023/01/07 01:34:14;;;;;;;8.63;3.10;;;;;;;-144.47;100.00;52933.56;5026784;28;20052;-69
2023/01/07 01:36:40;;;;;;;5.35;2.78;;;;;;;-144.47;100.00;52961.34;5026828;28;20100;-68
2023/01/07 01:39:05;;;;;;;11.77;4.05;;;;;;;-144.47;100.00;52945.47;5025909;28;20499;-67
2023/01/07 01:41:31;;;;;;;13.88;4.07;;;;;;;-144.47;100.00;52971.28;5023318;28;20076;-67
2023/01/07 01:43:56;;;;;;;11.13;3.38;;;;;;;-144.47;100.00;52955.41;5012087;28;20526;-68
2023/01/07 01:46:36;;;;;;;9.20;4.03;;;;;;;-144.47;100.00;52989.16;5023399;28;20040;-66
2023/01/07 01:49:15;;;;;;;10.98;3.92;;;;;;;-144.47;100.00;52937.53;5026103;28;20041;-69
2023/01/07 01:51:47;;;;;;;12.67;3.83;;;;;;;-144.47;100.00;52983.22;5024525;28;20029;-68
2023/01/07 01:54:16;;;;;;;9.20;3.28;;;;;;;-144.47;100.00;52965.34;5026876;28;20032;-68
2023/01/07 01:56:44;;;;;;;5.85;2.88;;;;;;;-144.47;100.00;52961.34;5026574;28;20022;-68
2023/01/07 01:59:16;;;;;;;6.15;2.45;;;;;;;-144.47;100.00;52975.25;5022528;28;20053;-66
2023/01/07 02:01:41;;;;;;;3.97;1.90;;;;;;;-144.47;100.00;52981.22;5025579;28;20029;-68
2023/01/07 02:04:11;;;;;;;3.17;1.80;;;;;;;-144.47;100.00;52997.09;5026719;28;20453;-67
2023/01/07 02:06:39;;;;;;;;;;;;;;;-144.47;100.00;52959.38;5026504;28;20038;-69
2023/01/07 02:09:05;;;;;;;4.15;2.03;;;;;;;-144.47;100.00;52951.44;5024751;28;19909;-69
2023/01/07 02:11:58;;;;;;;3.75;1.80;;;;;;;-144.47;100.00;52949.44;5027163;28;20043;-68
2023/01/07 02:14:51;;;;;;;3.90;1.90;;;;;;;-144.47;100.00;52965.34;5026182;28;20104;-68
2023/01/07 02:17:33;;;;;;;4.43;1.75;;;;;;;-144.47;100.00;52937.53;5011877;28;20026;-68
2023/01/07 02:20:24;;;;;;;2.42;1.70;;;;;;;-144.47;100.00;52979.22;5025505;28;20466;-69
2023/01/07 02:23:15;;;;;;;2.75;1.60;;;;;;;-144.47;100.00;52929.59;5007899;28;20078;-69
2023/01/07 02:26:11;;;;;;;4.35;1.67;;;;;;;-144.47;100.00;52957.38;5026676;28;20041;-69
2023/01/07 02:29:01;;;;;;;3.65;1.45;;;;;;;-144.47;100.00;52967.31;5024472;28;20113;-68
2023/01/07 02:32:01;;;;;;;2.72;1.40;;;;;;;-144.47;99.95;52975.25;5025256;28;20510;-69
2023/01/07 02:34:38;;;;;;;7.28;1.60;;;;;;;-144.47;99.81;52931.56;5021198;28;20622;-69
2023/01/07 02:37:09;;;;;;;4.55;1.35;;;;;;;-144.47;99.68;52957.38;5026166;28;20030;-69
2023/01/07 02:39:34;;;;;;;3.13;1.90;;;;;;;-144.47;99.30;52979.22;5024912;28;20571;-69
2023/01/07 02:42:24;;;;;;;5.32;1.45;;;;;;;-144.47;98.93;52985.19;5024503;28;20036;-67
2023/01/07 02:44:57;;;;;;;2.38;1.30;;;;;;;-144.47;98.88;52955.41;5023504;28;20021;-67
2023/01/07 02:47:36;;;;;;;3.40;1.60;;;;;;;-144.47;98.58;52957.38;5029597;28;20112;-68
2023/01/07 02:50:03;;;;;;;1.75;1.25;;;;;;;-144.47;98.43;52957.38;5045714;28;20040;-68
2023/01/07 02:52:31;;;;;;;2.45;1.60;;;;;;;-144.47;97.98;52959.38;5030951;28;20084;-68
2023/01/07 02:55:16;;;;;;;3.15;1.30;;;;;;;-144.47;97.96;52919.66;5030960;28;20104;-70
2023/01/07 02:57:54;;;;;;;7.50;1.60;;;;;;;-144.47;97.68;52933.56;5029419;28;20046;-69
2023/01/07 03:00:32;;;;;;;4.28;1.70;;;;;;;-144.47;97.54;52951.44;5027534;28;20030;-68
2023/01/07 03:03:06;;;;;;;2.20;1.50;;;;;;;-144.47;97.35;52943.47;5031213;28;20029;-67
2023/01/07 03:05:54;;;;;;;6.63;1.67;;;;;;;-144.47;97.21;52929.59;5029285;28;20803;-68
2023/01/07 03:08:58;;;;;;;2.88;1.65;;;;;;;-144.47;97.41;52943.47;5030465;28;20104;-68
2023/01/07 03:11:29;;;;;;;2.67;1.65;;;;;;;-144.47;96.91;52933.56;5020287;28;20700;-67
2023/01/07 03:14:16;;;;;;;2.13;1.40;;;;;;;-144.47;96.91;52915.69;5026015;28;20107;-70
2023/01/07 03:16:49;;;;;;;3.63;1.80;;;;;;;-144.47;97.04;52943.47;5029963;28;20041;-68
2023/01/07 03:19:21;;;;;;;4.03;1.77;;;;;;;-144.47;97.07;52943.47;5024642;28;20024;-66
2023/01/07 03:21:47;;;;;;;3.50;1.83;;;;;;;-144.47;96.94;52947.47;5025684;28;20616;-67
2023/01/07 03:24:15;;;;;;;7.93;1.75;;;;;;;-144.47;97.01;52907.72;5030868;28;20088;-68
2023/01/07 03:26:48;;;;;;;3.47;1.90;;;;;;;-144.47;96.95;52951.44;5029628;28;20029;-67
2023/01/07 03:29:16;;;;;;;2.75;1.77;;;;;;;-144.47;96.78;52913.69;5026230;28;20051;-68
2023/01/07 03:31:57;;;;;;;2.88;1.85;;;;;;;-144.47;96.69;52951.44;5030024;28;20106;-67
2023/01/07 03:34:25;;;;;;;2.70;1.38;;;;;;;-144.47;97.02;52943.47;5028607;28;20029;-67
2023/01/07 03:36:57;;;;;;;2.85;1.95;;;;;;;-144.47;96.84;52933.56;5029397;28;20033;-66
2023/01/07 03:39:25;;;;;;;3.10;1.60;;;;;;;-144.47;97.24;52951.44;5028113;28;20030;-67
2023/01/07 03:44:35;;;;;;;4.35;1.90;;;;;;;-144.47;97.61;52957.38;5017581;28;20627;-68
2023/01/07 03:47:01;;;;;;;2.63;1.60;;;;;;;-144.47;97.80;52947.47;5024535;28;20029;-67
2023/01/07 03:49:27;;;;;;;3.17;1.73;;;;;;;-144.47;97.75;52947.47;5028566;28;20441;-67
2023/01/07 03:51:53;;;;;;;4.75;2.00;;;;;;;-144.47;98.47;52981.22;5029688;28;20049;-66
2023/01/07 03:54:19;;;;;;;3.45;1.85;;;;;;;-144.47;98.94;52967.31;5027919;28;20080;-67
2023/01/07 03:56:45;;;;;;;3.50;1.77;;;;;;;-144.47;98.75;52963.34;5026254;28;20036;-68
2023/01/07 03:59:10;;;;;;;3.50;1.90;;;;;;;-144.47;99.19;52951.44;5024320;28;20018;-67
2023/01/07 04:01:36;;;;;;;5.90;1.92;;;;;;;-144.47;98.71;52921.63;5029323;28;20025;-68
2023/01/07 04:04:01;;;;;;;3.45;1.80;;;;;;;-144.47;98.37;52943.47;5027337;28;20075;-66
2023/01/07 04:06:26;;;;;;;3.35;1.65;;;;;;;-144.47;97.50;52955.41;5027390;28;20028;-68
2023/01/07 04:08:52;;;;;;;5.70;2.05;;;;;;;-144.47;96.46;52947.47;5022908;28;20475;-67
2023/01/07 04:11:17;;;;;;;3.00;1.40;;;;;;;-144.47;96.09;52955.41;5029281;28;20399;-68
2023/01/07 04:13:42;;;;;;;3.03;1.50;;;;;;;-144.47;95.27;52957.38;5027963;28;20049;-70
2023/01/07 04:16:08;;;;;;;3.95;1.40;;;;;;;-144.47;94.96;52965.34;5028522;28;20395;-68
2023/01/07 04:18:33;;;;;;;4.60;1.35;;;;;;;-144.47;94.53;52935.53;5018000;28;20049;-67
2023/01/07 04:20:58;;;;;;;3.25;1.58;;;;;;;-144.47;94.38;52915.69;5027408;28;20469;-68
2023/01/07 04:23:24;;;;;;;3.50;1.48;;;;;;;-144.47;94.01;52937.53;5029184;28;20025;-67
2023/01/07 04:25:49;;;;;;;2.65;1.42;;;;;;;-144.47;93.83;52905.75;5028739;28;20017;-67
2023/01/07 04:28:14;;;;;;;3.90;2.10;;;;;;;-144.47;93.43;52915.69;5027637;28;20028;-67
2023/01/07 04:30:40;;;;;;;2.35;1.35;;;;;;;-144.47;93.28;52919.66;5027090;28;20052;-67
2023/01/07 04:33:06;;;;;;;4.05;1.73;;;;;;;-144.47;93.17;52925.59;5024919;28;20029;-68
2023/01/07 04:35:32;;;;;;;2.50;1.35;;;;;;;-144.47;92.86;52911.69;5028213;28;20490;-67
2023/01/07 04:37:58;;;;;;;1.83;1.30;;;;;;;-144.47;92.77;52919.66;5028222;28;20475;-67
2023/01/07 04:40:24;;;;;;;3.17;1.80;;;;;;;-144.47;92.90;52947.47;5028433;28;20033;-67
2023/01/07 04:42:49;;;;;;;2.28;1.40;;;;;;;-144.47;92.83;52921.63;5025414;28;20444;-67
2023/01/07 04:45:14;;;;;;;1.90;1.30;;;;;;;-144.47;92.78;52921.63;5020852;28;20022;-67
2023/01/07 04:47:40;;;;;;;2.53;1.33;;;;;;;-144.47;92.39;52943.47;5027974;28;20372;-67
2023/01/07 04:50:06;;;;;;;3.70;1.40;;;;;;;-144.47;92.41;52959.38;5027997;28;20033;-66
2023/01/07 04:52:31;;;;;;;3.22;1.70;;;;;;;-144.47;92.46;52907.72;5028295;28;20022;-68
2023/01/07 04:54:56;;;;;;;3.20;1.92;;;;;;;-144.47;92.29;52913.69;5027118;28;20063;-67
2023/01/07 04:57:22;;;;;;;2.80;1.60;;;;;;;-144.47;92.19;52945.47;5026858;28;20113;-68
2023/01/07 04:59:47;;;;;;;4.28;1.20;;;;;;;-144.47;91.92;52927.59;5028170;28;20061;-67
2023/01/07 05:02:12;;;;;;;3.60;1.70;;;;;;;-144.47;91.94;52935.53;5028162;28;20036;-68
2023/01/07 05:04:38;;;;;;;6.30;1.35;;;;;;;-144.47;91.72;52925.59;5027635;28;20017;-66
2023/01/07 05:07:03;;;;;;;2.63;1.30;;;;;;;-144.47;91.73;52921.63;5020830;28;20041;-67
2023/01/07 05:09:28;;;;;;;1.98;1.20;;;;;;;-144.47;91.82;52935.53;5022320;28;20486;-66
2023/01/07 05:11:53;;;;;;;2.35;1.30;;;;;;;-144.47;91.57;52907.72;5027491;28;20375;-68
2023/01/07 05:14:19;;;;;;;2.72;1.38;;;;;;;-144.47;91.69;52927.59;5027600;28;20451;-66
2023/01/07 05:16:44;;;;;;;2.92;1.30;;;;;;;-144.47;91.67;52907.72;5023704;28;20051;-69
2023/01/07 05:19:10;;;;;;;2.85;1.33;;;;;;;-144.47;91.75;52921.63;5022212;28;20030;-68
2023/01/07 05:21:36;;;;;;;2.03;1.40;;;;;;;-144.47;91.70;52917.66;5027041;28;20035;-68
2023/01/07 05:24:01;;;;;;;2.42;1.33;;;;;;;-144.47;91.92;52959.38;5027925;28;20037;-68
2023/01/07 05:26:27;;;;;;;2.88;1.90;;;;;;;-144.47;91.67;52943.47;5027907;28;20029;-67
2023/01/07 05:28:52;;;;;;;3.03;1.30;;;;;;;-144.47;91.86;52945.47;5021178;28;20043;-69
2023/01/07 05:31:19;;;;;;;2.10;1.27;;;;;;;-144.47;91.85;52933.56;5020595;28;20032;-68
2023/01/07 05:33:44;;;;;;;2.72;1.27;;;;;;;-144.47;91.78;52915.69;5024779;28;20064;-68
2023/01/07 05:36:10;;;;;;;2.40;1.30;;;;;;;-144.47;91.63;52911.69;5027875;28;20064;-66
2023/01/07 05:38:35;;;;;;;3.67;1.17;;;;;;;-144.47;91.69;52903.75;5026162;28;20544;-68
2023/01/07 05:41:01;;;;;;;4.75;1.48;;;;;;;-144.47;91.47;52927.59;5021311;28;20034;-68
2023/01/07 05:43:27;;;;;;;1.92;1.48;;;;;;;-144.47;91.23;52909.72;5026640;28;20037;-67
2023/01/07 05:45:52;;;;;;;2.25;1.17;;;;;;;-144.47;91.50;52917.66;5023322;28;20098;-68
2023/01/07 05:48:17;;;;;;;2.03;1.08;;;;;;;-144.47;91.29;52907.72;5027234;28;20508;-68
2023/01/07 05:50:43;;;;;;;3.85;1.27;;;;;;;-144.47;91.25;52929.59;5027256;28;20029;-69
2023/01/07 05:53:08;;;;;;;5.28;1.15;;;;;;;-144.47;91.25;52907.72;5018706;28;20130;-68
2023/01/07 05:55:36;;;;;;;2.03;1.15;;;;;;;-144.47;91.05;52975.25;5026584;28;20222;-69
2023/01/07 05:58:01;;;;;;;3.50;1.30;;;;;;;-144.47;90.86;52923.63;5024103;28;20452;-68
2023/01/07 06:00:27;;;;;;;1.58;1.05;;;;;;;-144.47;90.79;52917.66;5025217;28;20059;-67
2023/01/07 06:02:52;;;;;;;2.17;1.20;;;;;;;-144.47;90.70;52921.63;5026723;28;20033;-68
2023/01/07 06:05:17;;;;;;;2.33;1.10;;;;;;;-144.47;90.72;52917.66;5026583;28;20025;-68
2023/01/07 06:07:43;;;;;;;2.42;1.40;;;;;;;-144.47;90.52;52919.66;5022536;28;20103;-68
2023/01/07 06:10:09;;;;;;;4.13;1.20;;;;;;;-144.47;90.77;52907.72;5027415;28;20052;-67
2023/01/07 06:12:35;;;;;;;4.47;1.67;;;;;;;-144.47;90.71;52899.78;5022974;28;20483;-67
2023/01/07 06:15:00;;;;;;;2.42;1.35;;;;;;;-144.47;90.73;52933.56;5023740;28;20040;-67
2023/01/07 06:17:26;;;;;;;4.65;1.48;;;;;;;-144.47;90.78;52935.53;5020456;28;20025;-68
2023/01/07 06:19:51;;;;;;;3.83;1.30;;;;;;;-144.47;90.75;52935.53;5018309;28;20029;-67
2023/01/07 06:22:17;;;;;;;3.00;1.52;;;;;;;-144.47;90.55;52925.59;5026694;28;20026;-67
2023/01/07 06:24:42;;;;;;;2.15;1.20;;;;;;;-144.47;90.84;52907.72;5029977;28;20078;-68
2023/01/07 06:27:09;;;;;;;4.75;1.50;;;;;;;-144.47;91.21;52915.69;5029559;28;20021;-67
2023/01/07 06:29:34;;;;;;;2.50;1.30;;;;;;;-144.47;91.54;52895.81;5028928;28;20083;-69
2023/01/07 06:32:00;;;;;;;2.50;1.40;;;;;;;-144.47;91.87;52955.41;5030787;28;20109;-68
2023/01/07 06:34:25;;;;;;;5.20;1.80;;;;;;;-144.47;92.03;52949.44;5030230;28;20030;-67
2023/01/07 06:36:50;;;;;;;8.85;1.80;;;;;;;-144.47;92.29;52919.66;5030069;28;20104;-67
2023/01/07 06:39:16;;;;;;;5.45;1.92;;;;;;;-144.47;92.56;52913.69;5029462;28;20174;-65
2023/01/07 06:41:41;;;;;;;4.38;1.48;;;;;;;-144.47;92.79;52951.44;5027568;28;20075;-68
2023/01/07 06:44:06;;;;;;;3.13;1.40;;;;;;;-144.47;92.70;52927.59;5020756;28;20033;-70
2023/01/07 06:46:32;;;;;;;1.85;1.10;;;;;;;-144.47;92.88;52913.69;5024013;28;20044;-68
2023/01/07 06:48:57;;;;;;;2.25;1.08;;;;;;;-144.47;92.68;52915.69;5029900;28;20496;-68
2023/01/07 06:51:22;;;;;;;2.00;1.00;;;;;;;-144.47;92.56;52955.41;5029995;28;20142;-67
2023/01/07 06:53:48;;;;;;;3.33;1.23;;;;;;;-144.47;92.64;52963.34;5027372;28;20036;-67
2023/01/07 06:56:13;;;;;;;1.58;0.98;;;;;;;-144.47;92.36;52917.66;5030474;28;20026;-67
2023/01/07 06:58:38;;;;;;;1.83;1.02;;;;;;;-144.47;92.39;52933.56;5029192;28;20031;-68
2023/01/07 07:01:05;;;;;;;5.00;1.30;;;;;;;-144.47;92.39;52919.66;5023511;22;20049;-67
2023/01/07 07:03:31;;;;;;;2.05;1.15;;;;;;;-144.47;92.15;52911.69;4991000;28;20030;-68
2023/01/07 07:05:56;;;;;;;2.30;1.25;;;;;;;-144.47;92.21;52943.47;5007626;28;20365;-67
2023/01/07 07:08:21;;;;;;;2.13;1.30;;;;;;;-144.47;92.13;52951.44;4998145;28;20034;-67
2023/01/07 07:10:47;;;;;;;3.20;1.52;;;;;;;-144.47;92.36;52905.75;4992780;28;20033;-68
2023/01/07 07:13:12;;;;;;;2.78;1.40;;;;;;;-144.47;93.08;52949.44;4991761;28;20019;-65
2023/01/07 07:15:37;;;;;;;5.05;1.35;;;;;;;-144.47;93.75;52931.56;4991311;28;20030;-67
2023/01/07 07:18:03;;;;;;;4.07;1.40;;;;;;;-144.47;94.76;52921.63;4987523;28;20037;-67
2023/01/07 07:20:28;;;;;;;2.60;1.13;;;;;;;-144.47;93.11;52927.59;4991888;28;20117;-67
2023/01/07 07:22:54;;;;;;;3.17;1.15;;;;;;;-144.47;92.41;52939.50;4992135;28;20655;-67
2023/01/07 07:25:19;;;;;;;2.00;1.00;;;;;;;-144.47;92.54;52927.59;4992210;28;20026;-68
2023/01/07 07:27:45;;;;;;;3.67;1.20;;;;;;;-144.47;92.44;52939.50;4990755;28;20036;-67
2023/01/07 07:30:14;;;;;;;1.77;1.00;;;;;;;-144.47;92.80;52929.59;4989766;28;20629;-67
2023/01/07 07:32:41;;;;;;;3.53;1.27;;;;;;;-144.47;92.54;52931.56;4989568;28;20037;-67
2023/01/07 07:35:07;;;;;;;2.15;1.27;;;;;;;-144.47;92.73;52933.56;5002099;28;20030;-68
2023/01/07 07:37:32;;;;;;;2.50;1.30;;;;;;;-144.47;93.41;52947.47;4989696;28;20036;-70
2023/01/07 07:39:58;;;;;;;1.85;1.10;;;;;;;-144.47;93.54;52947.47;5001028;28;20041;-68
2023/01/07 07:42:23;;;;;;;3.25;1.40;;;;;;;-144.47;93.77;52917.66;4992892;28;20476;-67
2023/01/07 07:44:49;;;;;;;1.92;1.10;;;;;;;-144.47;93.86;52945.47;4995218;28;20030;-67
2023/01/07 07:47:15;;;;;;;3.78;1.38;;;;;;;-144.47;93.83;52917.66;4990867;28;20037;-64
2023/01/07 07:49:40;;;;;;;4.22;1.48;;;;;;;-144.47;94.12;52965.34;4993556;28;20435;-67
2023/01/07 07:52:06;;;;;;;3.58;1.50;;;;;;;-144.47;94.03;52949.44;4991245;28;20030;-67
2023/01/07 07:54:31;;;;;;;6.00;1.52;;;;;;;-144.47;94.42;52959.38;4991570;28;20591;-64
2023/01/07 07:56:57;;;;;;;3.08;1.55;;;;;;;-144.47;94.17;52955.41;4991406;28;20113;-68
2023/01/07 07:59:23;;;;;;;2.00;1.27;;;;;;;-144.47;93.94;52939.50;4990345;28;20080;-68
2023/01/07 08:01:49;;;;;;;1.80;1.15;;;;;;;-144.47;93.96;52937.53;4990526;28;20048;-68
2023/01/07 08:04:14;;;;;;;2.63;1.30;;;;;;;-144.47;93.80;52955.41;4991842;28;20563;-65
2023/01/07 08:06:40;;;;;;;2.28;1.35;;;;;;;-144.47;93.73;52947.47;4991637;28;20034;-68
2023/01/07 08:09:05;;;;;;;2.78;1.52;;;;;;;-144.47;93.58;52965.34;4993514;28;20018;-68
2023/01/07 08:11:30;;;;;;;8.38;1.70;;;;;;;-144.47;93.89;52915.69;4989523;28;20034;-67
2023/01/07 08:13:56;;;;;;;2.63;1.58;;;;;;;-144.47;93.38;52961.34;4994907;28;20691;-67
2023/01/07 08:16:21;;;;;;;4.10;1.60;;;;;;;-144.47;93.21;52949.44;4986246;28;20038;-66
2023/01/07 08:18:46;;;;;;;6.03;1.77;;;;;;;-144.47;93.18;52939.50;5008468;28;20027;-66
2023/01/07 08:21:12;;;;;;;7.30;2.03;;;;;;;-144.47;93.55;52919.66;4987499;28;20489;-67
2023/01/07 08:23:37;;;;;;;3.78;1.80;;;;;;;-144.47;93.48;52943.47;4996434;28;20065;-67
2023/01/07 08:26:03;;;;;;;2.63;1.45;;;;;;;-144.47;93.64;52953.41;4991585;28;20049;-68
2023/01/07 08:28:33;;;;;;;3.22;1.77;;;;;;;-144.47;93.91;52953.41;4989809;28;20045;-67
2023/01/07 08:31:03;;;;;;;4.35;2.30;;;;;;;-144.47;93.82;52943.47;4988944;28;20058;-67
2023/01/07 08:33:29;;;;;;;9.93;2.17;;;;;;;-144.47;93.88;52955.41;4988679;28;20060;-68
2023/01/07 08:35:54;;;;;;;3.63;1.52;;;;;;;-144.47;94.00;52943.47;4998562;28;20058;-67
2023/01/07 08:38:19;;;;;;;4.45;1.48;;;;;;;-144.47;93.88;52939.50;4993593;28;20535;-67
2023/01/07 08:40:45;;;;;;;3.65;1.45;;;;;;;-144.47;93.93;52929.59;4988998;28;20042;-67
2023/01/07 08:43:11;;;;;;;3.28;1.50;;;;;;;-144.47;93.48;52945.47;4987606;28;20035;-66
2023/01/07 08:45:36;;;;;;;3.60;1.50;;;;;;;-144.47;92.79;52933.56;4986779;28;20081;-68
2023/01/07 08:48:03;;;;;;;3.65;1.50;;;;;;;-144.47;92.36;52919.66;4985216;28;20061;-67
2023/01/07 08:50:30;;;;;;;2.55;1.30;;;;;;;-144.47;91.93;52941.50;4994391;28;20037;-67
2023/01/07 08:52:56;;;;;;;2.70;1.50;;;;;;;-144.47;91.81;52929.59;4989729;28;20449;-67
2023/01/07 08:55:22;;;;;;;3.08;1.58;;;;;;;-144.47;91.41;52913.69;4989622;28;20556;-66
2023/01/07 08:57:48;;;;;;;4.20;1.42;;;;;;;-144.47;91.54;52935.53;4988213;28;20377;-66
2023/01/07 09:00:15;;;;;;;3.28;1.60;;;;;;;-144.47;90.99;52951.44;4993487;28;20061;-65
2023/01/07 09:02:40;;;;;;;3.17;1.48;;;;;;;-144.47;91.09;52941.50;4988976;28;20559;-67
2023/01/07 09:05:06;;;;;;;4.43;1.70;;;;;;;-144.47;90.72;52897.81;4989648;28;20034;-67
2023/01/07 09:07:31;;;;;;;9.55;2.22;;;;;;;-144.47;89.99;52931.56;4991620;28;20018;-65
2023/01/07 09:09:57;;;;;;;4.30;1.77;;;;;;;-144.47;89.50;52925.59;4990370;28;20544;-67
2023/01/07 09:12:22;;;;;;;3.47;1.48;;;;;;;-144.47;88.93;52903.75;4990285;28;20030;-65
2023/01/07 09:14:47;;;;;;;3.03;1.35;;;;;;;-144.47;87.95;52893.81;4988166;28;20030;-66
2023/01/07 09:17:13;;;;;;;4.15;1.50;;;;;;;-144.47;87.23;52899.78;4986451;28;20104;-65
2023/01/07 09:19:38;;;;;;;3.35;1.35;;;;;;;-144.47;86.75;52917.66;4996699;28;20027;-67
2023/01/07 09:22:04;;;;;;;3.10;1.15;;;;;;;-144.47;86.13;52911.69;5000248;28;20022;-66
2023/01/07 09:24:29;;;;;;;2.03;1.00;;;;;;;-144.47;85.85;52901.78;4990325;28;20034;-67
2023/01/07 09:26:54;;;;;;;3.47;1.30;;;;;;;-144.47;85.44;52899.78;4987912;28;20022;-67
2023/01/07 09:29:20;;;;;;;2.88;1.13;;;;;;;-144.47;85.06;52917.66;4989700;28;20022;-64
2023/01/07 09:31:45;;;;;;;1.80;1.08;;;;;;;-144.47;84.79;52915.69;4988875;28;20038;-65
2023/01/07 09:34:11;;;;;;;2.75;1.20;;;;;;;-144.47;84.34;52899.78;4987007;28;20037;-66
2023/01/07 09:36:36;;;;;;;2.15;1.25;;;;;;;-144.47;83.84;52909.72;4992830;28;20026;-65
2023/01/07 09:39:02;;;;;;;4.38;1.08;;;;;;;-144.47;83.50;52887.88;4994456;28;20619;-65
2023/01/07 09:41:31;;;;;;;4.05;1.27;;;;;;;-144.47;82.89;52917.66;4986052;28;20039;-67
2023/01/07 09:44:02;;;;;;;;;;;;;;;-144.47;82.52;52891.84;4987332;28;20030;-67
2023/01/07 09:46:30;;;;;;;2.45;1.10;;;;;;;-144.47;82.14;52915.69;4987562;28;20287;-66
2023/01/07 09:49:00;;;;;;;2.30;1.23;;;;;;;-144.47;81.58;52891.84;5004136;28;20053;-66
2023/01/07 09:51:40;;;;;;;3.40;1.50;;;;;;;-144.47;81.23;52881.91;4995486;28;20044;-66
2023/01/07 09:54:25;;;;;;;2.50;1.30;;;;;;;-144.47;80.96;52887.88;4996087;28;20117;-67
2023/01/07 09:56:51;;;;;;;2.70;1.55;;;;;;;-144.47;80.68;52895.81;4992452;28;20109;-67
2023/01/07 09:59:18;;;;;;;3.40;1.30;;;;;;;-144.47;79.93;52903.75;4992669;28;20192;-67
2023/01/07 10:02:06;;;;;;;3.55;0.80;;;;;;;-144.47;79.74;52864.03;4991454;28;20096;-66
2023/01/07 10:04:55;;;;;;;2.97;1.48;;;;;;;-144.47;79.55;52875.94;4992119;28;20030;-70
2023/01/07 10:07:34;;;;;;;1.77;1.10;;;;;;;-144.47;79.01;52866.03;4995080;28;20037;-68
2023/01/07 10:10:32;;;;;;;1.45;1.02;;;;;;;-144.47;78.99;52897.81;4993187;28;20033;-69
2023/01/07 10:12:58;;;;;;;2.45;1.10;;;;;;;-144.47;78.83;52887.88;4991359;28;20038;-68
2023/01/07 10:15:45;;;;;;;5.70;1.30;;;;;;;-144.47;79.24;52885.88;4990281;28;20038;-69
2023/01/07 10:18:42;;;;;;;6.03;0.93;;;;;;;-144.47;78.75;52881.91;4995869;28;20085;-68
2023/01/07 10:21:19;;;;;;;1.42;0.80;;;;;;;-144.47;78.77;52871.97;5000523;28;20415;-69
2023/01/07 10:23:49;;;;;;;2.05;1.00;;;;;;;-144.47;78.56;52907.72;4989464;28;20508;-69
2023/01/07 10:26:28;;;;;;;2.47;0.93;;;;;;;-144.47;78.45;52875.94;4986870;28;20038;-68
2023/01/07 10:28:55;;;;;;;;;;;;;;;-144.47;78.66;52864.03;4986573;28;20077;-69
2023/01/07 10:31:24;;;;;;;2.97;0.90;;;;;;;-144.47;78.42;52856.09;4988163;28;21102;-69
2023/01/07 10:33:50;;;;;;;1.85;1.08;;;;;;;-144.47;78.92;52915.69;4986623;28;20030;-70
2023/01/07 10:36:38;;;;;;;2.63;0.82;;;;;;;-144.47;79.07;52887.88;4985747;28;20041;-67
2023/01/07 10:39:09;;;;;;;3.13;1.20;;;;;;;-144.47;79.30;52901.78;4989438;28;20084;-69
2023/01/07 10:41:46;;;;;;;1.75;0.88;;;;;;;-144.47;79.60;52871.97;4984747;28;20022;-70
2023/01/07 10:44:24;;;;;;;1.63;0.85;;;;;;;-144.47;78.87;52875.94;4987800;28;20072;-70
2023/01/07 10:47:07;;;;;;;5.88;1.00;;;;;;;-144.47;78.52;52887.88;4989569;28;20042;-70
2023/01/07 10:50:16;;;;;;;1.65;0.88;;;;;;;-144.47;78.13;52856.09;4984423;28;20125;-68
2023/01/07 10:53:06;;;;;;;1.77;0.93;;;;;;;-144.47;77.33;52889.84;4989774;28;20026;-68
2023/01/07 10:55:40;;;;;;;1.60;0.77;;;;;;;-144.47;76.48;52868.00;4988270;28;20026;-70
2023/01/07 10:58:09;;;;;;;1.30;0.80;;;;;;;-144.47;76.01;52909.72;4988849;28;20041;-70
2023/01/07 11:00:34;;;;;;;2.85;1.02;;;;;;;-144.47;76.05;52889.84;4987763;28;20044;-69
2023/01/07 11:03:00;;;;;;;4.10;1.10;;;;;;;-144.47;75.51;52887.88;4987246;28;20042;-69
2023/01/07 11:05:34;;;;;;;1.00;0.60;;;;;;;-144.47;74.71;52881.91;4987907;28;20121;-70
2023/01/07 11:08:02;;;;;;;1.65;0.70;;;;;;;-144.47;74.33;52864.03;4986234;28;20036;-67
2023/01/07 11:10:32;;;;;;;1.58;0.93;;;;;;;-144.47;73.47;52881.91;4992573;28;20494;-72
2023/01/07 11:13:29;;;;;;;1.90;0.90;;;;;;;-144.47;73.02;52864.03;4992162;28;20032;-71
2023/01/07 11:16:10;;;;;;;0.75;0.60;;;;;;;-144.47;71.93;52864.03;4976739;28;20716;-68
2023/01/07 11:18:52;;;;;;;1.00;0.60;;;;;;;-144.47;71.66;52868.00;4987043;28;20272;-70
2023/01/07 11:21:31;;;;;;;2.25;0.70;;;;;;;-144.47;71.46;52856.09;4986636;28;20409;-69
2023/01/07 11:23:57;;;;;;;1.35;0.60;;;;;;;-144.47;71.38;52858.06;4992336;28;20033;-68
2023/01/07 11:26:27;;;;;;;0.50;0.50;;;;;;;-144.47;70.87;52868.00;4986647;28;20038;-65
2023/01/07 11:29:12;;;;;;;0.93;0.70;;;;;;;-144.47;70.14;52852.13;4989441;28;20030;-67